Airfield :
LOGIN :

Register | Disclaimer

   EN    FR    IT 

 










Legend :    VFR   Marginal VFR   IFR   Intensive IFR   Very Intensive IFR
Visi :
Ceiling :
>= 8 km
>= 3000ft
5 to 8 km
1000 to 3000 ft
1500m to 5 km
500 to 1000 ft
800 to 1500m
200 to 500 ft
< 800m
< 200 ft
Symbols :   Thunderstorms  Fog  Heavy snow  Heavy precipitations  Wind > 20 kt
SIGMETs :     Misc.  Thunderstorms  Icing  Turbulence  Mountain Waves  Volcanic Ashes







- Airport Elevation : 20 ft


EBFN - Koksijde

CURRENT METAR :
  • 211355Z 36007KT 9999 FEW045 BKN250 21/10 Q1027 BLU BLU

EXPIRED METARs :
  • 211325Z 34007KT 9999 FEW045 BKN250 21/10 Q1027 BLU BLU
  • 211255Z 34008KT 9999 FEW045 BKN250 20/11 Q1027 BLU BLU
  • 211225Z 33008KT 9999 FEW045 BKN250 20/10 Q1027 BLU BLU
  • 211155Z 33005KT 9999 FEW045 BKN250 21/11 Q1027 BLU BLU
  • 211125Z 24004KT 9999 FEW040 SCT250 20/08 Q1028 BLU BLU

TAF TAF EBFN
Valid from the 21 at 13:00 until the 21 at 22:00 UTC


211141Z 2113/2122 27003KT 9999 FEW035 SCT220
BECMG 2113/2115 36005KT
No reported NOTAMs for that airfield.



MET'MAP, your aeronautical weather chart ! - Copyright ORBIFLY December 2007 - Disclaimer

ORBIFLY MET'MAP TEAM :

Programming & Development : Alexandra Zaïnal
Concept & Development : Baudouin d'Aumeries
Co-Development & Prog : Marc-Olivier Méhu
Technical & hardware support : Manuel Goepfert

Contact : metmap@orbifly.com




SOURCES & CREDITS :

   NOAA